createdAt,value
2023-02-22T00:02:14.096Z,17.40
2023-02-22T00:04:42.078Z,17.10
2023-02-22T00:07:10.026Z,16.90
2023-02-22T00:09:37.822Z,16.70
2023-02-22T00:12:05.772Z,17.10
2023-02-22T00:14:33.640Z,17.80
2023-02-22T00:17:02.520Z,17.40
2023-02-22T00:19:31.076Z,18.30
2023-02-22T00:22:00.302Z,18.70
2023-02-22T00:24:29.557Z,18.80
2023-02-22T00:26:57.624Z,18.10
2023-02-22T00:29:26.516Z,19.20
2023-02-22T00:31:54.514Z,18.30
2023-02-22T00:34:24.154Z,19.20
2023-02-22T00:36:52.122Z,20.10
2023-02-22T00:39:20.388Z,20.70
2023-02-22T00:41:49.833Z,20.00
2023-02-22T00:44:17.865Z,20.00
2023-02-22T00:46:46.320Z,20.10
2023-02-22T00:49:17.049Z,19.10
2023-02-22T00:51:45.149Z,19.60
2023-02-22T00:54:14.411Z,19.50
2023-02-22T00:56:42.797Z,19.90
2023-02-22T00:59:10.675Z,20.50
2023-02-22T01:01:38.575Z,19.40
2023-02-22T01:04:06.916Z,20.20
2023-02-22T01:06:35.310Z,20.10
2023-02-22T01:09:04.727Z,20.10
2023-02-22T01:11:32.533Z,19.70
2023-02-22T01:14:02.210Z,20.50
2023-02-22T01:16:30.030Z,20.50
2023-02-22T01:18:57.848Z,19.40
2023-02-22T01:21:25.649Z,20.30
2023-02-22T01:23:55.685Z,19.50
2023-02-22T01:26:23.654Z,21.30
2023-02-22T01:28:51.441Z,20.80
2023-02-22T01:31:19.794Z,20.40
2023-02-22T01:33:47.866Z,22.80
2023-02-22T01:36:16.681Z,22.30
2023-02-22T01:38:45.534Z,22.70
2023-02-22T01:41:13.941Z,21.90
2023-02-22T01:43:41.793Z,23.60
2023-02-22T01:46:25.952Z,21.80
2023-02-22T01:48:59.789Z,22.70
2023-02-22T01:51:37.739Z,21.40
2023-02-22T01:54:33.470Z,22.60
2023-02-22T01:57:29.933Z,23.20
2023-02-22T02:00:10.176Z,22.00
2023-02-22T02:02:48.073Z,22.60
2023-02-22T02:05:20.446Z,22.30
2023-02-22T02:07:49.390Z,22.10
2023-02-22T02:10:17.994Z,24.10
2023-02-22T02:12:50.736Z,22.00
2023-02-22T02:15:32.361Z,23.10
2023-02-22T02:18:09.023Z,23.70
2023-02-22T02:20:50.579Z,23.00
2023-02-22T02:23:44.156Z,24.20
2023-02-22T02:26:42.361Z,23.80
2023-02-22T02:29:43.637Z,23.10
2023-02-22T02:35:51.083Z,23.20
2023-02-22T02:38:46.160Z,24.90
2023-02-22T02:41:34.994Z,23.40
2023-02-22T02:44:13.152Z,23.70
2023-02-22T02:46:59.347Z,24.30
2023-02-22T02:49:58.443Z,22.20
2023-02-22T02:52:29.190Z,24.00
2023-02-22T02:54:58.544Z,24.50
2023-02-22T02:57:26.487Z,24.40
2023-02-22T02:59:54.265Z,25.20
2023-02-22T03:02:25.908Z,24.50
2023-02-22T03:05:45.249Z,23.60
2023-02-22T03:08:40.870Z,26.00
2023-02-22T03:11:42.730Z,24.00
2023-02-22T03:14:27.105Z,25.80
2023-02-22T03:17:16.756Z,23.10
2023-02-22T03:20:09.774Z,26.60
2023-02-22T03:22:54.562Z,26.30
2023-02-22T03:25:34.159Z,24.90
2023-02-22T03:28:11.859Z,23.70
2023-02-22T03:30:50.713Z,25.50
2023-02-22T03:33:34.020Z,26.30
2023-02-22T03:36:30.089Z,26.20
2023-02-22T03:39:01.114Z,24.70
2023-02-22T03:41:33.598Z,25.90
2023-02-22T03:44:11.837Z,25.30
2023-02-22T03:46:42.223Z,25.10
2023-02-22T03:49:35.122Z,24.70
2023-02-22T03:52:05.137Z,25.00
2023-02-22T03:54:35.041Z,28.30
2023-02-22T03:57:26.276Z,26.50
2023-02-22T04:00:07.395Z,26.60
2023-02-22T04:02:41.904Z,26.10
2023-02-22T04:05:10.771Z,25.70
2023-02-22T04:07:38.551Z,25.50
2023-02-22T04:10:11.046Z,26.40
2023-02-22T04:12:39.749Z,27.00
2023-02-22T04:15:12.363Z,25.70
2023-02-22T04:17:40.148Z,28.30
2023-02-22T04:20:11.692Z,26.80
2023-02-22T04:22:46.841Z,27.10
2023-02-22T04:25:16.064Z,27.00
2023-02-22T04:27:44.741Z,25.70
2023-02-22T04:30:13.388Z,24.90
2023-02-22T04:32:41.760Z,26.10
2023-02-22T04:35:10.002Z,26.10
2023-02-22T04:37:38.017Z,26.40
2023-02-22T04:40:08.901Z,27.30
2023-02-22T04:42:38.854Z,26.60
2023-02-22T04:45:09.551Z,26.90
2023-02-22T04:47:38.343Z,27.90
2023-02-22T04:50:09.553Z,28.30
2023-02-22T04:52:37.810Z,27.80
2023-02-22T04:55:07.515Z,25.60
2023-02-22T04:57:37.265Z,28.50
2023-02-22T05:00:06.384Z,26.60
2023-02-22T05:02:34.815Z,26.70
2023-02-22T05:05:02.664Z,26.50
2023-02-22T05:07:30.589Z,27.90
2023-02-22T05:09:58.802Z,28.70
2023-02-22T05:12:27.949Z,27.10
2023-02-22T05:14:55.756Z,27.60
2023-02-22T05:17:23.752Z,26.50
2023-02-22T05:19:51.527Z,25.70
2023-02-22T05:22:19.283Z,26.40
2023-02-22T05:24:47.124Z,27.80
2023-02-22T05:27:14.925Z,27.30
2023-02-22T05:29:42.703Z,28.30
2023-02-22T05:32:12.293Z,26.50
2023-02-22T05:34:40.597Z,25.40
2023-02-22T05:37:08.350Z,26.60
2023-02-22T05:39:36.176Z,27.50
2023-02-22T05:42:04.262Z,27.80
2023-02-22T05:44:32.026Z,27.10
2023-02-22T05:46:59.844Z,26.80
2023-02-22T05:49:27.716Z,28.90
2023-02-22T05:51:59.569Z,27.00
2023-02-22T05:54:27.318Z,26.50
2023-02-22T05:56:55.135Z,26.70
2023-02-22T05:59:22.954Z,27.70
2023-02-22T06:01:50.765Z,27.40
2023-02-22T06:04:18.597Z,26.40
2023-02-22T06:06:46.419Z,26.40
2023-02-22T06:09:14.249Z,26.80
2023-02-22T06:11:42.080Z,27.70
2023-02-22T06:14:10.078Z,27.80
2023-02-22T06:16:38.511Z,26.30
2023-02-22T06:19:06.325Z,26.40
2023-02-22T06:21:34.109Z,27.70
2023-02-22T06:24:04.512Z,27.50
2023-02-22T06:26:32.391Z,26.20
2023-02-22T06:29:00.253Z,24.80
2023-02-22T06:31:28.059Z,25.00
2023-02-22T06:33:56.361Z,24.80
2023-02-22T06:36:24.174Z,23.90
2023-02-22T06:38:52.102Z,25.20
2023-02-22T06:41:19.956Z,24.50
2023-02-22T06:43:48.637Z,24.00
2023-02-22T06:46:16.733Z,22.10
2023-02-22T06:48:44.545Z,22.90
2023-02-22T06:51:12.511Z,21.80
2023-02-22T06:53:40.395Z,21.70
2023-02-22T06:56:08.219Z,21.30
2023-02-22T06:58:36.020Z,21.30
2023-02-22T07:01:04.319Z,19.90
2023-02-22T07:03:32.225Z,21.10
2023-02-22T07:06:00.210Z,20.60
2023-02-22T07:08:29.097Z,19.30
2023-02-22T07:10:57.174Z,20.80
2023-02-22T07:13:25.246Z,18.20
2023-02-22T07:15:53.314Z,19.70
2023-02-22T07:18:21.224Z,18.40
2023-02-22T07:20:49.097Z,18.50
2023-02-22T07:23:18.453Z,20.20
2023-02-22T07:25:46.371Z,19.50
2023-02-22T07:28:14.315Z,20.70
2023-02-22T07:30:43.702Z,19.20
2023-02-22T07:33:14.019Z,18.40
2023-02-22T07:35:48.397Z,18.40
2023-02-22T07:38:20.305Z,18.00
2023-02-22T07:40:48.343Z,18.70
2023-02-22T07:43:25.957Z,17.60
2023-02-22T07:45:58.026Z,18.20
2023-02-22T07:48:30.077Z,17.80
2023-02-22T07:50:59.647Z,17.20
2023-02-22T07:53:32.512Z,17.70
2023-02-22T07:56:03.671Z,17.50
2023-02-22T07:58:32.904Z,18.90
2023-02-22T08:01:04.243Z,16.20
2023-02-22T08:03:37.841Z,16.20
2023-02-22T08:06:08.104Z,17.70
2023-02-22T08:08:35.935Z,16.70
2023-02-22T08:11:04.282Z,17.30
2023-02-22T08:13:32.873Z,15.80
2023-02-22T08:16:00.756Z,16.60
2023-02-22T08:18:28.565Z,16.60
2023-02-22T08:20:56.916Z,15.10
2023-02-22T08:23:27.094Z,15.20
2023-02-22T08:25:56.283Z,15.80
2023-02-22T08:28:25.362Z,16.80
2023-02-22T08:30:53.712Z,15.90
2023-02-22T08:33:21.978Z,15.10
2023-02-22T08:35:50.274Z,15.30
2023-02-22T08:38:31.094Z,15.50
2023-02-22T08:40:58.974Z,15.40
2023-02-22T08:43:28.556Z,14.30
2023-02-22T08:45:57.829Z,14.10
2023-02-22T08:48:25.839Z,15.20
2023-02-22T08:50:53.954Z,15.20
2023-02-22T08:53:21.805Z,13.60
2023-02-22T08:55:49.876Z,15.60
2023-02-22T08:58:17.770Z,14.00
2023-02-22T09:00:45.807Z,14.40
2023-02-22T09:03:15.509Z,15.50
2023-02-22T09:05:44.979Z,14.10
2023-02-22T09:08:13.424Z,15.60
2023-02-22T09:10:41.817Z,14.20
2023-02-22T09:13:09.668Z,14.10
2023-02-22T09:15:38.306Z,15.00
2023-02-22T09:18:09.507Z,14.30
2023-02-22T09:20:37.749Z,14.30
2023-02-22T09:23:09.667Z,14.10
2023-02-22T09:25:40.847Z,14.50
2023-02-22T09:28:09.324Z,13.00
2023-02-22T09:30:37.558Z,14.00
2023-02-22T09:33:14.645Z,13.30
2023-02-22T09:35:46.579Z,13.20
2023-02-22T09:38:19.428Z,14.20
2023-02-22T09:40:57.273Z,14.60
2023-02-22T09:43:43.111Z,13.30
2023-02-22T09:46:34.705Z,12.60
2023-02-22T09:49:15.570Z,12.50
2023-02-22T09:52:24.104Z,12.90
2023-02-22T09:55:17.852Z,11.70
2023-02-22T09:57:47.402Z,12.60
2023-02-22T10:00:22.716Z,12.40
2023-02-22T10:03:12.491Z,12.40
2023-02-22T10:05:46.458Z,12.30
2023-02-22T10:08:19.059Z,12.20
2023-02-22T10:11:19.704Z,11.80
2023-02-22T10:14:19.692Z,12.40
2023-02-22T10:17:19.846Z,13.50
2023-02-22T10:20:00.458Z,12.60
2023-02-22T10:23:00.940Z,13.00
2023-02-22T10:25:36.252Z,13.00
2023-02-22T10:28:15.930Z,12.30
2023-02-22T10:30:57.586Z,11.80
2023-02-22T10:33:34.772Z,12.10
2023-02-22T10:36:03.365Z,12.00
2023-02-22T10:38:34.630Z,10.30
2023-02-22T10:43:42.934Z,9.70
2023-02-22T10:46:19.051Z,8.90
2023-02-22T10:48:55.064Z,9.70
2023-02-22T10:51:23.257Z,9.60
2023-02-22T10:54:14.189Z,8.80
2023-02-22T10:56:52.401Z,9.70
2023-02-22T10:59:42.053Z,9.90
2023-02-22T11:02:16.060Z,9.50
2023-02-22T11:04:51.430Z,9.60
2023-02-22T11:07:27.362Z,8.90
2023-02-22T11:10:09.518Z,8.70
2023-02-22T11:12:41.316Z,9.20
2023-02-22T11:15:24.334Z,9.10
2023-02-22T11:17:57.826Z,9.10
2023-02-22T11:20:39.348Z,8.80
2023-02-22T11:23:08.290Z,9.00
2023-02-22T11:25:40.485Z,8.50
2023-02-22T11:28:31.240Z,8.30
2023-02-22T11:31:14.607Z,9.00
2023-02-22T11:33:58.930Z,8.90
2023-02-22T11:36:40.412Z,7.90
2023-02-22T11:39:29.387Z,8.20
2023-02-22T11:41:57.395Z,9.10
2023-02-22T11:44:29.836Z,7.50
2023-02-22T11:47:07.075Z,7.10
2023-02-22T11:49:41.197Z,8.00
2023-02-22T11:52:34.750Z,7.30
2023-02-22T11:55:36.431Z,7.20
2023-02-22T11:58:33.563Z,6.90
2023-02-22T12:01:17.288Z,6.50
2023-02-22T12:04:10.583Z,7.20
2023-02-22T12:07:15.445Z,7.30
2023-02-22T12:10:05.606Z,8.40
2023-02-22T12:13:03.745Z,7.70
2023-02-22T12:15:56.295Z,7.50
2023-02-22T12:18:58.854Z,6.90
2023-02-22T12:21:30.214Z,7.30
2023-02-22T12:26:49.012Z,6.40
2023-02-22T12:29:26.700Z,7.30
2023-02-22T12:32:10.356Z,6.90
2023-02-22T12:34:44.572Z,7.60
2023-02-22T12:37:25.051Z,7.50
2023-02-22T12:40:08.954Z,6.50
2023-02-22T12:43:05.381Z,6.00
2023-02-22T12:45:54.856Z,6.20
2023-02-22T12:48:44.512Z,6.10
2023-02-22T12:51:46.488Z,5.80
2023-02-22T12:54:46.332Z,6.30
2023-02-22T12:57:57.194Z,5.80
2023-02-22T13:00:36.762Z,5.90
2023-02-22T13:03:37.543Z,5.70
2023-02-22T13:06:49.625Z,6.50
2023-02-22T13:09:49.342Z,6.60
2023-02-22T13:12:53.639Z,6.70
2023-02-22T13:15:55.860Z,6.60
2023-02-22T13:18:45.010Z,7.60
2023-02-22T13:21:31.820Z,6.80
2023-02-22T13:24:58.507Z,6.20
2023-02-22T13:27:52.842Z,7.30
2023-02-22T13:30:38.214Z,7.00
2023-02-22T13:33:44.000Z,6.40
2023-02-22T13:36:38.804Z,6.60
2023-02-22T13:39:28.579Z,6.60
2023-02-22T13:42:34.819Z,7.10
2023-02-22T13:45:27.221Z,7.40
2023-02-22T13:48:39.442Z,7.70
2023-02-22T13:51:36.437Z,6.60
2023-02-22T13:54:34.636Z,6.40
2023-02-22T13:57:03.709Z,5.90
2023-02-22T13:59:37.164Z,6.30
2023-02-22T14:02:07.912Z,6.50
2023-02-22T14:04:41.033Z,6.30
2023-02-22T14:07:18.217Z,5.80
2023-02-22T14:09:56.758Z,5.60
2023-02-22T14:12:30.918Z,5.00
2023-02-22T14:15:26.543Z,5.00
2023-02-22T14:18:07.463Z,4.50
2023-02-22T14:20:38.252Z,4.30
2023-02-22T14:23:33.610Z,4.90
2023-02-22T14:26:19.829Z,4.40
2023-02-22T14:29:00.754Z,4.70
2023-02-22T14:31:46.567Z,4.40
2023-02-22T14:34:40.630Z,4.20
2023-02-22T14:37:17.654Z,4.30
2023-02-22T14:40:27.288Z,4.40
2023-02-22T14:43:19.851Z,4.50
2023-02-22T14:45:54.472Z,4.80
2023-02-22T14:48:39.260Z,4.90
2023-02-22T14:51:21.886Z,4.30
2023-02-22T14:53:59.984Z,4.80
2023-02-22T14:57:12.156Z,4.50
2023-02-22T15:00:22.726Z,4.60
2023-02-22T15:02:57.344Z,4.50
2023-02-22T15:05:30.438Z,4.30
2023-02-22T15:08:03.993Z,4.30
2023-02-22T15:10:43.164Z,4.50
2023-02-22T15:13:27.907Z,4.50
2023-02-22T15:16:01.789Z,4.70
2023-02-22T15:18:47.186Z,4.20
2023-02-22T15:21:24.049Z,4.60
2023-02-22T15:23:59.925Z,4.20
2023-02-22T15:26:52.025Z,4.20
2023-02-22T15:29:39.591Z,4.00
2023-02-22T15:32:30.500Z,4.60
2023-02-22T15:35:24.054Z,4.20
2023-02-22T15:38:04.116Z,4.70
2023-02-22T15:40:33.712Z,4.70
2023-02-22T15:43:08.588Z,4.30
2023-02-22T15:45:42.946Z,4.40
2023-02-22T15:48:12.063Z,4.00
2023-02-22T15:50:39.927Z,3.80
2023-02-22T15:53:28.812Z,3.50
2023-02-22T15:56:00.948Z,4.20
2023-02-22T15:58:30.027Z,4.00
2023-02-22T16:01:05.355Z,4.20
2023-02-22T16:03:51.856Z,4.10
2023-02-22T16:06:35.229Z,5.20
2023-02-22T16:09:30.352Z,4.20
2023-02-22T16:12:22.015Z,4.20
2023-02-22T16:17:41.140Z,4.30
2023-02-22T16:20:14.389Z,4.40
2023-02-22T16:22:49.308Z,4.10
2023-02-22T16:25:21.588Z,4.30
2023-02-22T16:28:06.308Z,4.60
2023-02-22T16:30:37.712Z,3.90
2023-02-22T16:33:13.596Z,3.30
2023-02-22T16:35:51.804Z,2.80
2023-02-22T16:38:21.165Z,3.20
2023-02-22T16:40:54.909Z,3.10
2023-02-22T16:43:29.584Z,2.60
2023-02-22T16:45:58.356Z,2.40
2023-02-22T16:48:32.908Z,2.80
2023-02-22T16:51:09.204Z,2.80
2023-02-22T16:53:37.650Z,2.70
2023-02-22T16:56:11.756Z,3.00
2023-02-22T16:58:41.445Z,2.50
2023-02-22T17:01:09.985Z,3.30
2023-02-22T17:03:38.341Z,2.40
2023-02-22T17:06:07.186Z,2.70
2023-02-22T17:08:34.982Z,3.00
2023-02-22T17:11:04.134Z,2.90
2023-02-22T17:13:32.460Z,3.10
2023-02-22T17:16:00.304Z,2.90
2023-02-22T17:18:33.859Z,2.40
2023-02-22T17:21:03.443Z,2.90
2023-02-22T17:23:31.264Z,2.70
2023-02-22T17:26:04.650Z,3.00
2023-02-22T17:28:32.589Z,3.50
2023-02-22T17:31:01.964Z,3.40
2023-02-22T17:33:34.729Z,3.70
2023-02-22T17:36:05.290Z,3.70
2023-02-22T17:38:34.706Z,3.00
2023-02-22T17:41:03.341Z,2.30
2023-02-22T17:43:31.309Z,2.10
2023-02-22T17:45:59.453Z,1.90
2023-02-22T17:48:27.556Z,2.50
2023-02-22T17:50:56.111Z,2.30
2023-02-22T17:53:25.486Z,2.20
2023-02-22T17:55:53.605Z,2.40
2023-02-22T17:58:22.747Z,1.90
2023-02-22T18:00:51.786Z,1.60
2023-02-22T18:03:25.327Z,2.00
2023-02-22T18:05:59.986Z,2.00
2023-02-22T18:08:31.127Z,2.00
2023-02-22T18:11:03.350Z,1.50
2023-02-22T18:13:31.532Z,2.10
2023-02-22T18:16:00.218Z,1.80
2023-02-22T18:18:28.561Z,1.80
2023-02-22T18:20:59.805Z,1.80
2023-02-22T18:23:32.086Z,1.80
2023-02-22T18:26:11.746Z,2.10
2023-02-22T18:28:40.557Z,1.90
2023-02-22T18:31:17.084Z,1.70
2023-02-22T18:33:50.421Z,1.60
2023-02-22T18:36:23.283Z,1.80
2023-02-22T18:38:54.767Z,2.30
2023-02-22T18:41:25.367Z,2.20
2023-02-22T18:43:55.490Z,1.90
2023-02-22T18:46:24.652Z,2.40
2023-02-22T18:48:55.709Z,2.30
2023-02-22T18:51:25.702Z,2.60
2023-02-22T18:54:00.249Z,3.20
2023-02-22T18:56:30.226Z,2.60
2023-02-22T18:59:04.454Z,3.00
2023-02-22T19:01:39.123Z,2.60
2023-02-22T19:04:12.541Z,2.90
2023-02-22T19:06:41.314Z,3.10
2023-02-22T19:09:09.421Z,3.30
2023-02-22T19:11:37.525Z,3.80
2023-02-22T19:14:05.486Z,3.50
2023-02-22T19:16:33.550Z,3.70
2023-02-22T19:19:01.628Z,3.90
2023-02-22T19:21:31.877Z,4.60
2023-02-22T19:24:04.582Z,4.30
2023-02-22T19:26:32.600Z,4.80
2023-02-22T19:29:08.445Z,4.00
2023-02-22T19:31:36.556Z,4.10
2023-02-22T19:34:10.334Z,3.70
2023-02-22T19:36:45.872Z,3.70
2023-02-22T19:39:17.254Z,3.60
2023-02-22T19:41:46.018Z,3.90
2023-02-22T19:44:14.053Z,4.10
2023-02-22T19:46:42.162Z,3.80
2023-02-22T19:49:10.034Z,4.20
2023-02-22T19:51:38.012Z,4.30
2023-02-22T19:54:11.101Z,4.50
2023-02-22T19:56:38.949Z,4.40
2023-02-22T19:59:13.625Z,4.10
2023-02-22T20:01:45.682Z,4.80
2023-02-22T20:04:18.504Z,3.90
2023-02-22T20:06:54.649Z,4.30
2023-02-22T20:09:30.095Z,4.50
2023-02-22T20:11:58.775Z,4.70
2023-02-22T20:14:28.647Z,4.80
2023-02-22T20:16:58.813Z,5.00
2023-02-22T20:19:28.359Z,5.00
2023-02-22T20:21:56.849Z,4.70
2023-02-22T20:24:25.687Z,5.30
2023-02-22T20:26:55.850Z,5.10
2023-02-22T20:29:29.872Z,5.30
2023-02-22T20:32:00.605Z,5.10
2023-02-22T20:34:32.364Z,5.10
2023-02-22T20:37:01.326Z,4.90
2023-02-22T20:39:29.675Z,5.30
2023-02-22T20:42:00.447Z,4.80
2023-02-22T20:44:28.364Z,5.40
2023-02-22T20:46:56.264Z,4.70
2023-02-22T20:49:25.836Z,4.50
2023-02-22T20:51:53.722Z,4.00
2023-02-22T20:54:21.677Z,4.40
2023-02-22T20:56:52.657Z,4.60
2023-02-22T20:59:21.841Z,4.80
2023-02-22T21:01:50.461Z,4.90
2023-02-22T21:04:19.055Z,4.40
2023-02-22T21:06:46.934Z,4.40
2023-02-22T21:09:19.822Z,4.40
2023-02-22T21:11:47.938Z,4.50
2023-02-22T21:14:20.750Z,4.40
2023-02-22T21:16:51.611Z,4.90
2023-02-22T21:19:25.750Z,4.50
2023-02-22T21:22:01.500Z,4.60
2023-02-22T21:24:29.855Z,4.20
2023-02-22T21:27:01.120Z,4.40
2023-02-22T21:29:29.801Z,4.20
2023-02-22T21:31:58.636Z,4.50
2023-02-22T21:34:26.662Z,4.40
2023-02-22T21:36:54.779Z,4.20
2023-02-22T21:39:28.136Z,4.20
2023-02-22T21:42:00.713Z,4.30
2023-02-22T21:44:29.652Z,4.30
2023-02-22T21:46:57.695Z,4.40
2023-02-22T21:49:25.606Z,4.00
2023-02-22T21:51:53.847Z,4.00
2023-02-22T21:54:21.808Z,4.00
2023-02-22T21:56:50.563Z,4.20
2023-02-22T21:59:22.469Z,3.70
2023-02-22T22:01:55.855Z,4.40
2023-02-22T22:04:32.528Z,4.30
2023-02-22T22:07:02.330Z,5.20
2023-02-22T22:09:37.716Z,4.60
2023-02-22T22:12:06.157Z,4.90
2023-02-22T22:14:35.267Z,4.70
2023-02-22T22:17:07.048Z,4.40
2023-02-22T22:19:39.272Z,4.90
2023-02-22T22:22:08.140Z,5.00
2023-02-22T22:24:37.121Z,5.80
2023-02-22T22:27:06.560Z,5.10
2023-02-22T22:29:34.639Z,5.30
2023-02-22T22:32:03.700Z,4.80
2023-02-22T22:34:34.429Z,5.00
2023-02-22T22:37:03.071Z,5.90
2023-02-22T22:39:31.792Z,5.60
2023-02-22T22:41:59.777Z,6.40
2023-02-22T22:44:33.138Z,5.80
2023-02-22T22:47:01.453Z,5.80
2023-02-22T22:49:31.343Z,6.40
2023-02-22T22:51:59.226Z,6.20
2023-02-22T22:54:27.101Z,6.60
2023-02-22T22:56:54.858Z,6.70
2023-02-22T22:59:22.818Z,6.70
2023-02-22T23:01:52.268Z,7.00
2023-02-22T23:04:21.483Z,7.20
2023-02-22T23:06:52.814Z,7.80
2023-02-22T23:09:34.733Z,7.80
2023-02-22T23:12:17.597Z,7.50
2023-02-22T23:14:45.813Z,9.00
2023-02-22T23:17:26.879Z,8.50
2023-02-22T23:19:54.888Z,8.40
2023-02-22T23:22:23.080Z,8.10
2023-02-22T23:24:50.946Z,8.90
2023-02-22T23:27:19.223Z,7.90
2023-02-22T23:29:47.201Z,8.40
2023-02-22T23:32:15.260Z,8.50
2023-02-22T23:34:43.209Z,8.50
2023-02-22T23:37:13.623Z,7.70
2023-02-22T23:39:42.426Z,7.80
2023-02-22T23:42:10.256Z,7.80
2023-02-22T23:44:39.811Z,7.60
2023-02-22T23:47:07.685Z,8.10
2023-02-22T23:49:38.027Z,7.70
2023-02-22T23:52:08.515Z,8.10
2023-02-22T23:54:40.394Z,7.60
2023-02-22T23:57:08.879Z,7.00
2023-02-22T23:59:40.386Z,7.60
